Terminal Aerodrome Forecast
Issued by NWS Twin Cities, MN

Home | Current Version | Previous Version | Graphics & Text | Print | Product List | Glossary On
Versions: 1 2 3 4 5 6 7 8 9 10 11 12 13 14 15 16 17 18 19 20 21 22 23 24
000
FTUS43 KMPX 192300
TAFEAU
TAF
KEAU 192339Z 2000/2024 30005KT P6SM VCSH SCT025 BKN060
      TEMPO 2000/2001 P6SM -SHRA BKN025 OVC050
     FM200130 33003KT P6SM FEW060 SCT250
     FM200500 00000KT 4SM BR SCT003 SCT250
     FM200700 00000KT 2SM BR SCT002
      TEMPO 2008/2012 1/2SM FG OVC001
     FM201400 05005KT P6SM SCT250
     FM201800 17007KT P6SM SCT050 BKN250=

USA.gov is the U.S. government's official web portal to all federal, state and local government web resources and services.